Time;durP1;ratioP1;P1;durP2;ratioP2;P2;SDS_P1;SDS_P2;PMS_P1;PMS_P2;Temp;Humidity;BMP_temperature;BMP_pressure;BME280_temperature;BME280_humidity;BME280_pressure;Samples;Min_cycle;Max_cycle;Signal;HPM_P1;HPM_P2
2022/10/29 00:01:57;;;;;;;0.43;0.43;;;16.50;99.90;17.90;101876.00;;;;5055711;28;20230;-73
2022/10/29 00:04:29;;;;;;;0.40;0.40;;;16.40;99.90;17.90;101895.00;;;;5034331;28;20216;-73
2022/10/29 00:06:55;;;;;;;0.30;0.30;;;16.40;99.90;18.10;101902.00;;;;5034645;28;20512;-73
2022/10/29 00:09:23;;;;;;;0.30;0.30;;;16.50;99.90;18.40;101888.00;;;;5034669;28;20239;-73
2022/10/29 00:11:49;;;;;;;0.30;0.30;;;16.70;99.90;17.80;101899.00;;;;5033840;28;20595;-73
2022/10/29 00:14:16;;;;;;;0.30;0.30;;;16.50;99.90;17.40;101889.00;;;;5017746;28;20231;-73
2022/10/29 00:16:42;;;;;;;0.30;0.30;;;16.30;99.90;18.10;101896.00;;;;5035395;28;20312;-73
2022/10/29 00:19:10;;;;;;;0.30;0.30;;;16.50;99.90;18.00;101892.00;;;;5034198;28;20277;-73
2022/10/29 00:21:36;;;;;;;0.30;0.30;;;16.50;99.90;18.00;101890.00;;;;5035159;28;20653;-73
2022/10/29 00:24:03;;;;;;;0.70;0.70;;;16.50;99.90;17.60;101886.00;;;;5034046;28;20516;-73
2022/10/29 00:26:29;;;;;;;0.30;0.30;;;16.40;99.90;17.60;101888.00;;;;5033902;28;20522;-73
2022/10/29 00:28:56;;;;;;;0.30;0.30;;;16.20;99.90;17.70;101891.00;;;;5035268;28;20183;-73
2022/10/29 00:31:23;;;;;;;0.30;0.30;;;16.20;99.90;17.90;101892.00;;;;5050221;28;20222;-72
2022/10/29 00:33:50;;;;;;;0.30;0.30;;;16.30;99.90;17.20;101846.00;;;;5033859;28;20180;-72
2022/10/29 00:36:28;;;;;;;0.30;0.30;;;16.10;99.90;17.20;101846.00;;;;5033781;28;20187;-72
2022/10/29 00:38:55;;;;;;;0.30;0.30;;;15.90;99.90;17.20;101879.00;;;;5033712;28;20612;-71
2022/10/29 00:41:26;;;;;;;0.30;0.30;;;15.80;99.90;17.60;101882.00;;;;5033843;28;20649;-71
2022/10/29 00:44:14;;;;;;;0.70;0.70;;;16.00;99.90;17.80;101881.00;;;;5050375;28;20620;-72
2022/10/29 00:47:03;;;;;;;0.67;0.67;;;16.20;99.90;17.00;101879.00;;;;5034421;28;20661;-72
2022/10/29 00:49:35;;;;;;;0.30;0.30;;;16.00;99.90;17.20;101884.00;;;;5033360;28;20196;-72
2022/10/29 00:52:03;;;;;;;0.30;0.30;;;15.80;99.90;17.50;101872.00;;;;5033356;28;20674;-72
2022/10/29 00:54:33;;;;;;;0.33;0.33;;;15.90;99.90;17.60;101877.00;;;;5033177;28;20190;-72
2022/10/29 00:57:07;;;;;;;0.37;0.37;;;16.00;99.90;17.70;101869.00;;;;5033353;28;20204;-72
2022/10/29 00:59:33;;;;;;;0.40;0.40;;;16.10;99.90;17.90;101861.00;;;;5033612;28;20177;-72
2022/10/29 01:01:59;;;;;;;0.30;0.30;;;16.30;99.90;17.60;101852.00;;;;5033335;28;20263;-72
2022/10/29 01:04:26;;;;;;;0.40;0.40;;;16.20;99.90;17.60;101856.00;;;;5033315;28;20187;-72
2022/10/29 01:06:52;;;;;;;0.40;0.40;;;16.10;99.90;17.80;101853.00;;;;5033203;28;20197;-72
2022/10/29 01:09:18;;;;;;;0.33;0.33;;;16.20;99.90;17.80;101841.00;;;;5033138;28;20192;-72
2022/10/29 01:12:08;;;;;;;0.40;0.40;;;16.20;99.90;17.80;101808.00;;;;5033393;28;20586;-72
2022/10/29 01:15:07;;;;;;;0.40;0.40;;;16.20;99.90;17.70;101834.00;;;;5049760;28;20655;-73
2022/10/29 01:17:59;;;;;;;0.30;0.30;;;16.20;99.90;17.60;101828.00;;;;5034518;28;20181;-73
2022/10/29 01:20:35;;;;;;;0.30;0.30;;;16.10;99.90;16.90;101810.00;;;;5033956;28;20276;-73
2022/10/29 01:23:57;;;;;;;0.30;0.30;;;15.90;99.90;16.60;101846.00;;;;5033736;28;20570;-73
2022/10/29 01:26:55;;;;;;;0.30;0.30;;;15.60;99.90;16.40;101850.00;;;;5049773;28;20185;-73
2022/10/29 01:29:48;;;;;;;0.20;0.20;;;15.30;99.90;16.60;101840.00;;;;5032740;28;20181;-73
2022/10/29 01:32:26;;;;;;;0.30;0.30;;;15.30;99.90;16.90;101804.00;;;;5034198;28;20548;-72
2022/10/29 01:35:08;;;;;;;0.30;0.30;;;15.50;99.90;17.50;101836.00;;;;5032794;28;20265;-72
2022/10/29 01:37:53;;;;;;;0.30;0.30;;;15.70;99.90;17.50;101833.00;;;;5032376;28;20190;-72
2022/10/29 01:40:42;;;;;;;0.30;0.30;;;15.80;99.90;17.60;101824.00;;;;5033978;28;20190;-72
2022/10/29 01:43:20;;;;;;;0.40;0.40;;;15.90;99.90;17.60;101826.00;;;;5033663;28;20327;-72
2022/10/29 01:45:56;;;;;;;0.30;0.30;;;16.00;99.90;17.30;101831.00;;;;5032751;28;20649;-72
2022/10/29 01:48:30;;;;;;;0.30;0.30;;;15.90;99.90;17.20;101833.00;;;;5032582;28;20647;-72
2022/10/29 01:51:01;;;;;;;0.30;0.30;;;15.80;99.90;17.30;101833.00;;;;5032670;28;20182;-72
2022/10/29 01:53:29;;;;;;;0.30;0.30;;;15.80;99.90;16.70;101823.00;;;;5032362;28;20190;-72
2022/10/29 01:55:55;;;;;;;0.30;0.30;;;15.70;99.90;16.60;101832.00;;;;5032626;28;20224;-73
2022/10/29 01:58:23;;;;;;;0.30;0.30;;;15.50;99.90;16.80;101821.00;;;;5048952;28;20204;-72
2022/10/29 02:01:09;;;;;;;0.30;0.30;;;15.40;99.90;17.10;101817.00;;;;5016201;28;20183;-73
2022/10/29 02:03:55;;;;;;;0.40;0.40;;;15.60;99.90;17.10;101821.00;;;;5033431;28;20521;-72
2022/10/29 02:07:09;;;;;;;0.30;0.30;;;15.60;99.90;17.00;101811.00;;;;5048524;28;20185;-72
2022/10/29 02:10:01;;;;;;;0.30;0.30;;;15.60;99.90;17.10;101809.00;;;;5015779;28;20191;-72
2022/10/29 02:12:51;;;;;;;0.40;0.40;;;15.60;99.90;17.30;101807.00;;;;5033050;28;20581;-72
2022/10/29 02:15:43;;;;;;;0.40;0.40;;;15.70;99.90;17.00;101800.00;;;;5010920;28;20191;-72
2022/10/29 02:18:42;;;;;;;0.40;0.40;;;15.70;99.90;17.20;101795.00;;;;5011006;28;20650;-72
2022/10/29 02:21:51;;;;;;;0.40;0.40;;;15.60;99.90;17.40;101792.00;;;;5011134;28;20637;-72
2022/10/29 02:24:57;;;;;;;0.40;0.40;;;15.70;99.90;17.00;101795.00;;;;5032968;28;20226;-72
2022/10/29 02:27:43;;;;;;;0.30;0.30;;;15.70;99.90;16.60;101800.00;;;;5063733;28;20204;-71
2022/10/29 02:30:31;;;;;;;0.40;0.40;;;15.50;99.90;16.80;101811.00;;;;5033074;28;20599;-71
2022/10/29 02:33:20;;;;;;;0.93;0.93;;;15.50;99.90;16.50;101806.00;;;;5031655;28;20669;-72
2022/10/29 02:36:09;;;;;;;0.30;0.30;;;15.50;99.90;16.60;101799.00;;;;5033208;28;20182;-72
2022/10/29 02:39:05;;;;;;;0.30;0.30;;;15.40;99.90;16.70;101797.00;;;;5011464;28;20285;-72
2022/10/29 02:41:54;;;;;;;1.27;1.27;;;15.50;99.90;16.90;101785.00;;;;4977654;28;20195;-72
2022/10/29 02:44:45;;;;;;;0.30;0.30;;;15.50;99.90;16.60;101792.00;;;;5026095;28;20204;-72
2022/10/29 02:47:41;;;;;;;1.53;0.80;;;15.50;99.90;17.00;101758.00;;;;5043026;28;20639;-72
2022/10/29 02:50:30;;;;;;;2.43;2.33;;;15.60;99.90;17.10;101774.00;;;;5043830;28;20648;-72
2022/10/29 02:53:18;;;;;;;0.30;0.30;;;15.70;99.90;17.20;101765.00;;;;5028764;28;20244;-73
2022/10/29 02:56:08;;;;;;;0.30;0.30;;;15.80;99.90;17.20;101762.00;;;;5031980;28;20175;-73
2022/10/29 02:59:02;;;;;;;0.40;0.40;;;15.80;99.90;17.70;101702.00;;;;5031929;28;20181;-72
2022/10/29 03:02:00;;;;;;;0.40;0.40;;;16.10;99.90;17.70;101741.00;;;;5031403;28;20190;-72
2022/10/29 03:04:54;;;;;;;0.40;0.40;;;16.10;99.90;17.40;101672.00;;;;5031644;28;20688;-72
2022/10/29 03:07:57;;;;;;;0.33;0.33;;;16.20;99.90;17.40;101734.00;;;;5010853;28;20252;-72
2022/10/29 03:11:19;;;;;;;1.50;1.40;;;16.10;99.90;17.40;101737.00;;;;5010848;28;20628;-73
2022/10/29 03:14:10;;;;;;;0.40;0.40;;;16.20;99.90;17.80;101694.00;;;;4996641;28;20194;-72
2022/10/29 03:17:16;;;;;;;0.50;0.50;;;16.40;99.90;17.30;101723.00;;;;5010756;28;20657;-71
2022/10/29 03:20:08;;;;;;;0.60;0.60;;;16.30;99.90;17.40;101722.00;;;;5050332;28;20231;-72
2022/10/29 03:22:57;;;;;;;1.13;1.13;;;16.20;99.90;17.80;101718.00;;;;5036660;28;20186;-71
2022/10/29 03:25:51;;;;;;;0.40;0.40;;;16.30;99.90;17.80;101719.00;;;;5032952;28;20216;-72
2022/10/29 03:28:29;;;;;;;0.30;0.30;;;16.30;99.90;17.80;101708.00;;;;5035037;28;20185;-71
2022/10/29 03:31:20;;;;;;;1.63;1.60;;;16.30;99.90;17.50;101705.00;;;;5036480;28;20175;-72
2022/10/29 03:34:17;;;;;;;0.77;0.77;;;16.20;99.90;17.30;101700.00;;;;5051546;28;20198;-71
2022/10/29 03:37:11;;;;;;;0.30;0.30;;;16.30;99.90;17.50;101684.00;;;;5034886;28;20196;-71
2022/10/29 03:40:12;;;;;;;0.53;0.53;;;16.10;99.90;17.20;101702.00;;;;5051617;28;20198;-72
2022/10/29 03:43:21;;;;;;;0.30;0.30;;;16.10;99.90;17.70;101698.00;;;;5035134;28;20263;-72
2022/10/29 03:46:38;;;;;;;0.30;0.30;;;16.20;99.90;17.40;101689.00;;;;5067571;28;20317;-71
2022/10/29 03:49:22;;;;;;;0.70;0.70;;;16.20;99.90;17.70;101679.00;;;;5030214;28;20204;-71
2022/10/29 03:52:11;;;;;;;0.50;0.50;;;16.20;99.90;17.80;101648.00;;;;5013963;28;20759;-72
2022/10/29 03:55:14;;;;;;;0.60;0.60;;;16.40;99.90;17.60;101682.00;;;;4978243;28;20671;-72
2022/10/29 03:58:30;;;;;;;0.40;0.40;;;16.40;99.90;17.70;101690.00;;;;4993112;28;20200;-72
2022/10/29 04:01:16;;;;;;;0.90;0.87;;;16.50;99.90;17.80;101625.00;;;;5013440;28;20190;-72
2022/10/29 04:03:45;;;;;;;1.17;1.17;;;16.50;99.90;17.70;101677.00;;;;4996982;28;20193;-72
2022/10/29 04:06:14;;;;;;;1.43;1.33;;;16.50;99.90;17.50;101680.00;;;;5048095;28;20195;-72
2022/10/29 04:08:41;;;;;;;0.90;0.90;;;16.40;99.90;17.70;101683.00;;;;5034721;28;20180;-72
2022/10/29 04:11:12;;;;;;;1.50;1.40;;;16.40;99.90;17.50;101675.00;;;;5034301;28;20191;-73
2022/10/29 04:13:38;;;;;;;1.13;0.63;;;16.30;99.90;17.40;101667.00;;;;5034348;28;20210;-72
2022/10/29 04:16:04;;;;;;;1.33;1.23;;;16.30;99.90;17.40;101666.00;;;;5034211;28;20667;-72
2022/10/29 04:18:30;;;;;;;0.43;0.43;;;16.20;99.90;17.90;101651.00;;;;5034971;28;20262;-72
2022/10/29 04:21:01;;;;;;;6.30;5.97;;;16.30;99.90;17.30;101653.00;;;;5035140;28;20277;-72
2022/10/29 04:23:28;;;;;;;0.30;0.30;;;16.40;99.90;17.70;101643.00;;;;5033922;28;20215;-72
2022/10/29 04:25:58;;;;;;;0.70;0.70;;;16.40;99.90;17.60;101653.00;;;;5035749;28;20175;-72
2022/10/29 04:28:24;;;;;;;0.60;0.60;;;16.40;99.90;17.30;101630.00;;;;5033759;28;20252;-72
2022/10/29 04:30:51;;;;;;;0.33;0.33;;;16.30;99.90;17.70;101641.00;;;;5033620;28;20179;-73
2022/10/29 04:33:18;;;;;;;1.70;1.00;;;16.40;99.90;17.20;101644.00;;;;5050427;28;20225;-73
2022/10/29 04:35:50;;;;;;;0.57;0.57;;;16.20;99.90;17.40;101635.00;;;;5034078;28;20648;-72
2022/10/29 04:38:16;;;;;;;2.80;2.50;;;16.20;99.90;17.60;101629.00;;;;5033965;28;20187;-72
2022/10/29 04:40:42;;;;;;;1.17;1.10;;;16.30;99.90;17.30;101628.00;;;;5034138;28;20163;-72
2022/10/29 04:43:08;;;;;;;1.27;0.60;;;16.20;99.90;17.50;101622.00;;;;5033698;28;20196;-72
2022/10/29 04:45:37;;;;;;;1.40;1.27;;;16.20;99.90;17.30;101622.00;;;;5033818;28;20507;-72
2022/10/29 04:48:05;;;;;;;2.17;1.17;;;16.20;99.90;17.70;101615.00;;;;5033906;28;20661;-72
2022/10/29 04:50:35;;;;;;;0.47;0.47;;;16.30;99.90;17.10;101592.00;;;;5033444;28;20616;-72
2022/10/29 04:53:04;;;;;;;1.23;1.13;;;16.10;99.90;17.20;101631.00;;;;5033493;28;20254;-72
2022/10/29 04:55:30;;;;;;;1.67;1.50;;;16.10;99.90;17.30;101641.00;;;;5034868;28;20182;-72
2022/10/29 04:57:59;;;;;;;0.40;0.40;;;16.10;99.90;17.30;101641.00;;;;5033548;28;20180;-72
2022/10/29 05:00:32;;;;;;;3.13;1.83;;;16.20;99.90;17.60;101636.00;;;;5033507;28;20177;-72
2022/10/29 05:02:58;;;;;;;0.30;0.30;;;16.40;99.90;17.60;101634.00;;;;5033471;28;20546;-72
2022/10/29 05:05:24;;;;;;;0.30;0.30;;;16.30;99.90;17.70;101645.00;;;;5049881;28;20177;-72
2022/10/29 05:07:57;;;;;;;0.60;0.57;;;16.40;99.90;17.70;101584.00;;;;5033397;28;20209;-72
2022/10/29 05:10:33;;;;;;;6.20;5.80;;;16.50;99.90;17.50;101616.00;;;;5033361;28;20212;-72
2022/10/29 05:13:06;;;;;;;0.40;0.40;;;16.60;99.90;17.80;101609.00;;;;5034167;28;20736;-72
2022/10/29 05:15:33;;;;;;;0.70;0.70;;;16.50;99.90;18.10;101625.00;;;;5032949;28;20187;-72
2022/10/29 05:18:08;;;;;;;0.30;0.30;;;16.60;99.90;17.90;101615.00;;;;5049386;28;20211;-72
2022/10/29 05:20:36;;;;;;;0.30;0.30;;;16.60;99.90;17.60;101583.00;;;;5032981;28;20183;-72
2022/10/29 05:23:08;;;;;;;1.03;1.03;;;16.50;99.90;17.70;101603.00;;;;5032817;28;20195;-72
2022/10/29 05:25:39;;;;;;;1.37;1.27;;;16.50;99.90;17.50;101617.00;;;;5033132;28;20278;-72
2022/10/29 05:28:18;;;;;;;0.53;0.53;;;16.50;99.90;17.70;101618.00;;;;5033055;28;20207;-73
2022/10/29 05:30:45;;;;;;;0.40;0.40;;;16.50;99.90;17.90;101614.00;;;;5032803;28;20228;-73
2022/10/29 05:33:15;;;;;;;1.67;1.50;;;16.70;99.90;18.00;101615.00;;;;5033827;28;20261;-73
2022/10/29 05:35:41;;;;;;;0.40;0.40;;;16.70;99.90;17.90;101607.00;;;;5032732;28;21035;-74
2022/10/29 05:38:09;;;;;;;0.90;0.90;;;16.70;99.90;17.70;101615.00;;;;5032974;28;20190;-73
2022/10/29 05:40:39;;;;;;;0.30;0.30;;;16.70;99.90;17.50;101623.00;;;;5032742;28;20181;-73
2022/10/29 05:43:08;;;;;;;0.37;0.37;;;16.60;99.90;17.90;101624.00;;;;5032295;28;20644;-73
2022/10/29 05:45:34;;;;;;;0.50;0.50;;;16.70;99.90;17.80;101596.00;;;;5033738;28;20172;-72
2022/10/29 05:48:02;;;;;;;0.50;0.50;;;16.60;99.90;17.80;101632.00;;;;5033685;28;20180;-73
2022/10/29 05:50:30;;;;;;;0.70;0.70;;;16.60;99.90;17.50;101601.00;;;;5032581;28;20257;-72
2022/10/29 05:53:04;;;;;;;0.70;0.70;;;16.50;99.90;17.70;101646.00;;;;5032694;28;20205;-72
2022/10/29 05:55:33;;;;;;;0.30;0.30;;;16.60;99.90;18.00;101635.00;;;;5032477;28;20623;-72
2022/10/29 05:58:05;;;;;;;0.90;0.90;;;16.60;99.90;17.60;101624.00;;;;5032432;28;20209;-72
2022/10/29 06:00:35;;;;;;;0.30;0.30;;;16.60;99.90;17.80;101642.00;;;;5032919;28;20167;-72
2022/10/29 06:03:14;;;;;;;1.10;1.00;;;16.40;99.90;18.10;101635.00;;;;5032375;28;20616;-72
2022/10/29 06:05:40;;;;;;;0.80;0.80;;;16.60;99.90;17.90;101617.00;;;;5048818;28;20637;-72
2022/10/29 06:08:07;;;;;;;0.47;0.47;;;16.60;99.90;17.90;101620.00;;;;5032114;28;20565;-72
2022/10/29 06:10:35;;;;;;;5.60;3.37;;;16.60;99.90;17.90;101614.00;;;;5032035;28;20181;-72
2022/10/29 06:13:02;;;;;;;0.30;0.30;;;16.60;99.90;17.90;101574.00;;;;5033181;28;20268;-72
2022/10/29 06:15:28;;;;;;;0.33;0.33;;;16.50;99.90;17.60;101617.00;;;;5032004;28;20189;-72
2022/10/29 06:17:53;;;;;;;0.60;0.60;;;16.40;99.90;17.70;101612.00;;;;5033643;28;20192;-72
2022/10/29 06:20:20;;;;;;;1.00;1.00;;;16.40;99.90;17.60;101621.00;;;;5031729;28;20638;-72
2022/10/29 06:22:56;;;;;;;0.40;0.40;;;16.30;99.90;17.40;101607.00;;;;5032031;28;20663;-74
2022/10/29 06:25:23;;;;;;;1.60;0.60;;;16.30;99.90;17.30;101605.00;;;;5031855;28;20264;-72
2022/10/29 06:28:13;;;;;;;1.70;1.60;;;16.30;99.90;17.20;101602.00;;;;5032355;28;20599;-72
2022/10/29 06:30:40;;;;;;;0.30;0.30;;;16.20;99.90;17.10;101601.00;;;;5031922;28;20543;-72
2022/10/29 06:33:06;;;;;;;0.50;0.50;;;16.10;99.90;17.40;101596.00;;;;5031478;28;20304;-72
2022/10/29 06:35:33;;;;;;;0.30;0.30;;;16.20;99.90;17.30;101598.00;;;;5048285;28;20288;-72
2022/10/29 06:38:02;;;;;;;0.30;0.30;;;16.10;99.90;17.70;101602.00;;;;5048812;28;20178;-73
2022/10/29 06:40:28;;;;;;;0.43;0.43;;;16.20;99.90;17.80;101591.00;;;;5048522;28;20184;-72
2022/10/29 06:43:05;;;;;;;0.60;0.50;;;16.30;99.90;17.50;101605.00;;;;5032968;28;20199;-72
2022/10/29 06:45:33;;;;;;;0.30;0.30;;;16.20;99.90;17.70;101605.00;;;;5048450;28;20176;-72
2022/10/29 06:47:59;;;;;;;1.03;0.97;;;16.30;99.90;17.70;101601.00;;;;5048475;28;20264;-72
2022/10/29 06:50:25;;;;;;;0.30;0.30;;;16.30;99.90;17.90;101597.00;;;;5048226;28;20230;-72
2022/10/29 06:53:00;;;;;;;0.53;0.53;;;16.30;99.90;17.60;101602.00;;;;5048658;28;20220;-72
2022/10/29 06:55:27;;;;;;;1.33;1.23;;;16.40;99.90;17.70;101600.00;;;;5052605;28;20518;-71
2022/10/29 06:58:04;;;;;;;0.40;0.40;;;16.30;99.90;17.90;101609.00;;;;5052660;28;20186;-72
2022/10/29 07:00:31;;;;;;;0.30;0.30;;;16.40;99.90;17.50;101600.00;;;;5035667;28;20179;-72
2022/10/29 07:03:03;;;;;;;11.23;1.17;;;16.30;99.90;17.90;101568.00;;;;5036943;28;20194;-73
2022/10/29 07:05:35;;;;;;;0.50;0.50;;;16.40;99.90;17.80;101582.00;;;;5052150;28;20197;-72
2022/10/29 07:08:04;;;;;;;1.80;1.70;;;16.50;99.90;17.90;101568.00;;;;5036948;28;20205;-72
2022/10/29 07:10:36;;;;;;;0.63;0.63;;;16.60;99.90;17.80;101578.00;;;;5052109;28;20187;-72
2022/10/29 07:13:08;;;;;;;1.73;1.63;;;16.60;99.90;17.40;101582.00;;;;5036594;28;20305;-72
2022/10/29 07:15:34;;;;;;;0.30;0.30;;;16.40;99.90;17.30;101570.00;;;;5052060;28;20221;-72
2022/10/29 07:18:07;;;;;;;14.53;1.03;;;16.30;99.90;17.40;101573.00;;;;5036858;28;20638;-73
2022/10/29 07:20:53;;;;;;;1.50;1.40;;;16.30;99.90;17.60;101576.00;;;;5051908;28;20233;-72
2022/10/29 07:23:24;;;;;;;0.40;0.40;;;16.40;99.90;17.40;101570.00;;;;5035047;28;20594;-72
2022/10/29 07:26:11;;;;;;;1.53;1.17;;;16.40;99.90;17.60;101576.00;;;;5036020;28;20184;-72
2022/10/29 07:28:48;;;;;;;0.50;0.50;;;16.50;99.90;17.90;101543.00;;;;5035279;28;20187;-72
2022/10/29 07:31:14;;;;;;;0.90;0.90;;;16.60;99.90;17.80;101526.00;;;;5036243;28;20302;-73
2022/10/29 07:34:03;;;;;;;3.50;2.73;;;16.70;99.90;18.10;101558.00;;;;5034710;28;20284;-72
2022/10/29 07:36:52;;;;;;;3.83;1.13;;;16.70;99.90;18.20;101570.00;;;;5036022;28;20240;-73
2022/10/29 07:39:46;;;;;;;0.53;0.53;;;16.90;99.90;18.50;101574.00;;;;5033895;28;20233;-73
2022/10/29 07:42:17;;;;;;;0.77;0.77;;;17.00;99.90;18.10;101566.00;;;;5005069;28;20282;-73
2022/10/29 07:45:32;;;;;;;0.50;0.50;;;17.10;99.90;18.20;101585.00;;;;5014885;28;20217;-72
2022/10/29 07:48:17;;;;;;;0.40;0.30;;;17.10;99.90;18.50;101578.00;;;;5051503;28;20288;-73
2022/10/29 07:50:43;;;;;;;0.57;0.57;;;17.20;99.90;18.70;101579.00;;;;5035891;28;20180;-72
2022/10/29 07:53:32;;;;;;;1.17;1.07;;;17.30;99.90;18.40;101568.00;;;;5034595;28;20196;-72
2022/10/29 07:56:10;;;;;;;1.13;0.73;;;17.20;99.90;18.80;101535.00;;;;5035908;28;20206;-72
2022/10/29 07:58:58;;;;;;;0.30;0.30;;;17.40;99.90;18.50;101572.00;;;;5034640;28;20695;-72
2022/10/29 08:01:26;;;;;;;1.03;1.03;;;17.40;99.90;18.20;101553.00;;;;5034480;28;20204;-72
2022/10/29 08:04:15;;;;;;;0.67;0.67;;;17.20;99.90;18.70;101566.00;;;;5017035;28;20257;-72
2022/10/29 08:06:46;;;;;;;0.37;0.37;;;17.30;99.90;18.70;101553.00;;;;5047668;28;20189;-72
2022/10/29 08:09:20;;;;;;;0.87;0.87;;;17.50;99.90;18.40;101558.00;;;;5047651;28;20190;-72
2022/10/29 08:11:49;;;;;;;1.07;0.97;;;17.40;99.90;18.40;101559.00;;;;5047095;28;20569;-72
2022/10/29 08:14:20;;;;;;;15.50;7.83;;;17.30;99.90;18.90;101558.00;;;;5047501;28;20281;-72
2022/10/29 08:16:53;;;;;;;0.60;0.60;;;17.60;99.90;19.10;101565.00;;;;5014658;28;20176;-72
2022/10/29 08:19:36;;;;;;;4.70;0.87;;;17.70;99.90;19.10;101553.00;;;;5047720;28;20169;-72
2022/10/29 08:22:04;;;;;;;0.40;0.40;;;17.80;99.90;19.40;101552.00;;;;5047552;28;20704;-68
2022/10/29 08:24:30;;;;;;;2.67;1.80;;;18.00;99.90;19.80;101553.00;;;;5034812;28;20193;-67
2022/10/29 08:26:56;;;;;;;0.40;0.40;;;18.30;99.90;19.70;101552.00;;;;5034652;28;20273;-69
2022/10/29 08:29:25;;;;;;;0.80;0.80;;;18.40;99.90;19.60;101548.00;;;;5034117;28;20279;-68
2022/10/29 08:31:56;;;;;;;0.47;0.47;;;18.50;99.90;19.90;101540.00;;;;5034937;28;20575;-69
2022/10/29 08:34:30;;;;;;;0.55;0.55;;;18.60;99.90;19.90;101541.00;;;;5034131;28;20179;-78
2022/10/29 08:37:10;;;;;;;0.60;0.60;;;18.70;99.90;20.30;101528.00;;;;5034264;28;20163;-77
2022/10/29 08:39:36;;;;;;;2.30;1.90;;;18.80;99.90;20.10;101515.00;;;;5034465;28;20170;-77
2022/10/29 08:42:26;;;;;;;1.20;1.10;;;18.80;99.90;19.60;101527.00;;;;5050760;28;20669;-77
2022/10/29 08:45:24;;;;;;;0.70;0.70;;;18.50;99.90;19.80;101532.00;;;;5035272;28;20223;-70
2022/10/29 08:48:04;;;;;;;0.30;0.30;;;18.50;99.90;19.90;101501.00;;;;5035014;28;20285;-70
2022/10/29 08:50:39;;;;;;;0.98;0.98;;;18.60;99.90;19.80;101533.00;;;;5034911;28;20178;-67
2022/10/29 08:53:20;;;;;;;0.20;0.20;;;18.80;99.90;19.70;101522.00;;;;5033259;28;20587;-73
2022/10/29 08:56:17;;;;;;;0.20;0.20;;;18.80;99.90;20.20;101516.00;;;;5033470;28;20248;-70
2022/10/29 08:59:03;;;;;;;4.03;2.43;;;18.90;99.90;20.00;101502.00;;;;5049781;28;20187;-66
2022/10/29 09:01:30;;;;;;;5.55;2.28;;;19.00;99.90;20.20;101513.00;;;;5033489;28;20185;-77
2022/10/29 09:03:59;;;;;;;0.45;0.45;;;19.00;99.90;20.40;101521.00;;;;5034387;28;20658;-76
2022/10/29 09:07:05;;;;;;;3.25;3.03;;;19.30;99.90;20.60;101491.00;;;;5033129;28;20194;-75
2022/10/29 09:09:48;;;;;;;0.20;0.20;;;19.40;99.90;20.40;101440.00;;;;5033740;28;20626;-72
2022/10/29 09:13:08;;;;;;;0.45;0.45;;;19.40;99.90;20.40;101526.00;;;;5034204;28;20219;-74
2022/10/29 09:15:48;;;;;;;1.00;1.00;;;19.40;99.90;20.90;101525.00;;;;5033917;28;20171;-75
2022/10/29 09:18:45;;;;;;;1.42;0.68;;;19.60;99.90;20.80;101483.00;;;;5032982;28;20183;-72
2022/10/29 09:21:35;;;;;;;0.57;0.57;;;19.60;99.90;20.80;101511.00;;;;5032945;28;20174;-68
2022/10/29 09:24:34;;;;;;;0.20;0.20;;;19.50;99.90;20.40;101520.00;;;;5034100;28;20171;-72
2022/10/29 09:27:43;;;;;;;2.38;0.85;;;19.60;99.90;20.80;101523.00;;;;5046814;28;20201;-69
2022/10/29 09:30:36;;;;;;;0.57;0.57;;;19.60;99.90;21.40;101525.00;;;;5032799;28;20546;-66
2022/10/29 09:33:20;;;;;;;6.15;2.70;;;20.00;99.90;21.80;101503.00;;;;5032810;28;20207;-77
2022/10/29 09:35:57;;;;;;;0.50;0.47;;;20.60;99.90;21.90;101539.00;;;;5033376;28;20186;-77
2022/10/29 09:38:31;;;;;;;1.40;1.23;;;20.80;99.90;22.40;101533.00;;;;5032836;28;20186;-70
2022/10/29 09:41:07;;;;;;;0.73;0.73;;;21.30;99.90;22.80;101548.00;;;;5032679;28;20244;-72
2022/10/29 09:43:55;;;;;;;0.75;0.75;;;21.50;99.90;22.80;101555.00;;;;5032430;28;20187;-68
2022/10/29 09:47:24;;;;;;;0.10;0.10;;;21.80;99.90;23.20;101563.00;;;;5034618;28;20669;-75
2022/10/29 09:50:13;;;;;;;0.47;0.47;;;21.90;99.90;23.40;101576.00;;;;5030769;28;20197;-71
2022/10/29 09:52:43;;;;;;;0.10;0.10;;;22.30;99.90;23.80;101574.00;;;;5023226;28;20225;-72
2022/10/29 09:55:25;;;;;;;0.43;0.43;;;22.30;99.90;24.80;101572.00;;;;5032551;28;20209;-72
2022/10/29 09:58:01;;;;;;;2.88;1.23;;;23.00;99.90;24.60;101595.00;;;;5027184;28;20542;-72
2022/10/29 10:01:10;;;;;;;0.52;0.52;;;23.00;99.90;24.10;101583.00;;;;5039172;28;20518;-73
2022/10/29 10:03:58;;;;;;;0.50;0.50;;;22.70;99.90;25.00;101595.00;;;;5043531;28;20716;-73
2022/10/29 10:06:30;;;;;;;0.45;0.45;;;23.20;99.90;25.40;101605.00;;;;5029419;28;20230;-73
2022/10/29 10:09:11;;;;;;;1.10;1.05;;;23.60;99.90;25.60;101622.00;;;;5024811;28;20265;-73
2022/10/29 10:11:58;;;;;;;0.63;0.63;;;24.00;99.90;25.30;101618.00;;;;5021133;28;20278;-73
2022/10/29 10:15:04;;;;;;;2.42;2.33;;;24.00;99.90;24.40;101621.00;;;;5037115;28;20195;-73
2022/10/29 10:18:04;;;;;;;1.45;1.45;;;23.70;99.90;23.80;101612.00;;;;5031269;28;20174;-73
2022/10/29 10:20:47;;;;;;;0.10;0.10;;;23.00;99.90;24.90;101584.00;;;;5027735;28;20210;-73
2022/10/29 10:33:33;;;;;;;0.47;0.47;;;23.00;99.90;24.00;101602.00;;;;5114662;27;1274813;-73
2022/10/29 10:36:28;;;;;;;0.40;0.40;;;23.20;99.90;25.20;101626.00;;;;5127801;28;20198;-73
2022/10/29 10:39:01;;;;;;;1.63;1.52;;;23.50;99.90;25.80;101650.00;;;;5112316;28;20237;-73
2022/10/29 10:41:33;;;;;;;0.95;0.45;;;24.10;99.90;25.50;101636.00;;;;5109989;28;20180;-72
2022/10/29 10:44:03;;;;;;;0.38;0.38;;;24.10;99.90;25.30;101624.00;;;;5109470;28;20279;-77
2022/10/29 10:46:38;;;;;;;0.10;0.10;;;24.20;99.90;25.40;101623.00;;;;5109891;28;20208;-77
2022/10/29 10:49:17;;;;;;;0.30;0.30;;;24.20;99.90;25.70;101625.00;;;;5109337;28;20199;-75
2022/10/29 10:51:52;;;;;;;0.20;0.20;;;24.40;99.90;26.20;101622.00;;;;5109453;28;20235;-79
2022/10/29 10:54:37;;;;;;;2.40;0.73;;;24.60;99.90;26.00;101637.00;;;;5109167;28;20176;-71
2022/10/29 10:57:11;;;;;;;0.20;0.20;;;24.60;99.90;25.70;101634.00;;;;5109701;28;20172;-71
2022/10/29 11:00:17;;;;;;;3.30;0.80;;;24.60;99.90;25.70;101598.00;;;;5109504;28;20597;-71
2022/10/29 11:02:59;;;;;;;0.47;0.47;;;24.60;99.90;26.10;101638.00;;;;5108735;28;20261;-70
2022/10/29 11:05:32;;;;;;;0.45;0.45;;;24.60;99.90;26.10;101617.00;;;;5109168;28;20329;-71
2022/10/29 11:08:40;;;;;;;0.50;0.50;;;24.60;99.90;26.50;101634.00;;;;5109023;28;20226;-71
2022/10/29 11:11:31;;;;;;;0.28;0.28;;;24.90;99.90;26.40;101626.00;;;;5108499;28;20188;-71
2022/10/29 11:14:23;;;;;;;0.10;0.10;;;24.90;99.90;26.90;101631.00;;;;5109140;28;20180;-72
2022/10/29 11:17:30;;;;;;;0.10;0.10;;;25.20;99.90;26.80;101624.00;;;;5110228;28;20180;-71
2022/10/29 11:20:38;;;;;;;0.25;0.25;;;25.30;99.90;26.60;101593.00;;;;5109145;28;20188;-72
2022/10/29 11:24:17;;;;;;;0.50;0.50;;;25.10;99.90;27.00;101609.00;;;;5109071;28;20176;-72
2022/10/29 11:26:54;;;;;;;0.10;0.10;;;25.40;99.90;26.50;101623.00;;;;5035371;28;20208;-71
2022/10/29 11:29:56;;;;;;;0.60;0.60;;;25.20;99.90;26.60;101617.00;;;;5127554;28;20186;-71
2022/10/29 11:32:47;;;;;;;1.77;1.67;;;25.10;99.90;26.70;101621.00;;;;5128680;28;20226;-70
2022/10/29 11:35:23;;;;;;;0.10;0.10;;;25.20;99.90;27.00;101627.00;;;;5129593;28;20184;-70
2022/10/29 11:38:27;;;;;;;0.20;0.20;;;25.40;99.90;26.80;101619.00;;;;5121131;28;20202;-71
2022/10/29 11:41:26;;;;;;;0.10;0.10;;;25.50;99.90;26.80;101624.00;;;;5114263;28;20180;-71
2022/10/29 11:43:58;;;;;;;0.17;0.17;;;25.60;99.90;26.60;101617.00;;;;5111106;28;20180;-71
2022/10/29 11:47:15;;;;;;;6.53;6.05;;;25.40;99.90;27.00;101618.00;;;;5085290;28;20263;-71
2022/10/29 11:49:53;;;;;;;0.20;0.20;;;25.40;99.90;27.00;101618.00;;;;5016616;28;20191;-71
2022/10/29 11:52:47;;;;;;;1.10;1.00;;;25.40;99.90;27.40;101599.00;;;;5033189;28;20210;-70
2022/10/29 11:55:24;;;;;;;0.13;0.13;;;25.70;99.90;27.70;101591.00;;;;5094945;28;20263;-70